createdAt,value
2019-01-08T00:03:42.977Z,81.89
2019-01-08T00:06:08.834Z,81.71
2019-01-08T00:08:34.737Z,87.31
2019-01-08T00:11:00.649Z,85.43
2019-01-08T00:13:26.522Z,83.60
2019-01-08T00:15:52.429Z,82.86
2019-01-08T00:18:18.305Z,82.81
2019-01-08T00:20:44.214Z,82.93
2019-01-08T00:23:10.094Z,82.70
2019-01-08T00:25:35.991Z,82.28
2019-01-08T00:28:01.868Z,82.22
2019-01-08T00:30:27.776Z,82.03
2019-01-08T00:32:53.678Z,82.34
2019-01-08T00:35:19.584Z,81.33
2019-01-08T00:37:45.459Z,80.43
2019-01-08T00:40:11.372Z,80.30
2019-01-08T00:42:37.290Z,79.33
2019-01-08T00:45:03.198Z,78.48
2019-01-08T00:47:29.126Z,77.89
2019-01-08T00:49:54.997Z,78.40
2019-01-08T00:52:20.905Z,78.06
2019-01-08T00:54:46.790Z,77.80
2019-01-08T00:57:12.694Z,78.18
2019-01-08T00:59:38.552Z,78.35
2019-01-08T01:02:04.484Z,78.35
2019-01-08T01:04:30.410Z,77.90
2019-01-08T01:06:56.285Z,77.68
2019-01-08T01:09:22.266Z,77.92
2019-01-08T01:11:48.136Z,77.87
2019-01-08T01:16:59.640Z,78.14
2019-01-08T01:19:25.534Z,78.24
2019-01-08T01:21:51.450Z,78.03
2019-01-08T01:24:17.332Z,78.40
2019-01-08T01:26:43.231Z,78.20
2019-01-08T01:29:09.117Z,77.77
2019-01-08T01:31:35.019Z,78.83
2019-01-08T01:34:00.897Z,79.00
2019-01-08T01:36:26.813Z,78.62
2019-01-08T01:38:52.685Z,78.10
2019-01-08T01:41:18.594Z,78.19
2019-01-08T01:43:44.463Z,78.44
2019-01-08T01:46:10.428Z,78.00
2019-01-08T01:48:36.288Z,77.85
2019-01-08T01:51:02.138Z,77.77
2019-01-08T01:53:28.042Z,78.03
2019-01-08T01:55:53.920Z,77.90
2019-01-08T01:58:19.763Z,76.97
2019-01-08T02:00:45.687Z,77.00
2019-01-08T02:03:11.586Z,77.09
2019-01-08T02:05:37.446Z,77.18
2019-01-08T02:08:03.354Z,77.01
2019-01-08T02:10:29.320Z,76.83
2019-01-08T02:15:42.636Z,76.65
2019-01-08T02:18:08.542Z,76.43
2019-01-08T02:20:34.449Z,76.25
2019-01-08T02:23:00.368Z,76.25
2019-01-08T02:25:26.236Z,75.32
2019-01-08T02:27:52.149Z,75.78
2019-01-08T02:30:18.031Z,76.21
2019-01-08T02:32:43.940Z,75.54
2019-01-08T02:35:09.874Z,76.08
2019-01-08T02:37:35.781Z,75.64
2019-01-08T02:40:01.682Z,75.54
2019-01-08T02:42:27.577Z,75.96
2019-01-08T02:44:53.488Z,75.93
2019-01-08T02:47:19.421Z,75.82
2019-01-08T02:49:45.317Z,75.89
2019-01-08T02:52:11.202Z,76.21
2019-01-08T02:54:37.135Z,75.79
2019-01-08T02:57:03.037Z,75.52
2019-01-08T02:59:28.903Z,75.67
2019-01-08T03:01:54.813Z,75.91
2019-01-08T03:07:06.347Z,75.91
2019-01-08T03:12:19.688Z,75.67
2019-01-08T03:14:45.558Z,75.22
2019-01-08T03:17:11.470Z,75.03
2019-01-08T03:19:57.232Z,74.86
2019-01-08T03:22:23.126Z,74.39
2019-01-08T03:24:49.035Z,73.65
2019-01-08T03:27:14.900Z,73.13
2019-01-08T03:29:40.800Z,73.47
2019-01-08T03:32:06.668Z,72.80
2019-01-08T03:34:32.592Z,74.05
2019-01-08T03:36:58.490Z,73.32
2019-01-08T03:39:24.370Z,73.51
2019-01-08T03:41:50.263Z,73.32
2019-01-08T03:44:36.052Z,73.64
2019-01-08T03:47:01.963Z,73.53
2019-01-08T03:49:27.843Z,73.62
2019-01-08T03:51:53.749Z,73.62
2019-01-08T03:54:19.692Z,73.63
2019-01-08T03:56:45.595Z,72.87
2019-01-08T03:59:11.458Z,72.85
2019-01-08T04:04:09.734Z,73.29
2019-01-08T04:06:35.597Z,72.90
2019-01-08T04:09:01.492Z,74.21
2019-01-08T04:11:27.439Z,74.54
2019-01-08T04:13:53.308Z,75.24
2019-01-08T04:16:19.181Z,74.64
2019-01-08T04:18:45.080Z,75.15
2019-01-08T04:21:10.955Z,75.46
2019-01-08T04:23:36.875Z,75.06
2019-01-08T04:26:02.761Z,74.89
2019-01-08T04:28:28.665Z,75.35
2019-01-08T04:30:54.564Z,75.36
2019-01-08T04:33:20.439Z,75.99
2019-01-08T04:35:46.310Z,76.03
2019-01-08T04:40:54.383Z,75.28
2019-01-08T04:43:20.245Z,75.92
2019-01-08T04:45:46.170Z,76.91
2019-01-08T04:48:12.035Z,76.53
2019-01-08T04:50:37.960Z,76.69
2019-01-08T04:53:03.839Z,77.27
2019-01-08T04:55:29.758Z,77.11
2019-01-08T04:57:55.631Z,76.07
2019-01-08T05:00:21.552Z,76.59
2019-01-08T05:02:47.424Z,76.16
2019-01-08T05:05:13.326Z,75.48
2019-01-08T05:07:39.239Z,74.93
2019-01-08T05:10:05.138Z,75.07
2019-01-08T05:12:31.041Z,74.40
2019-01-08T05:14:56.896Z,73.87
2019-01-08T05:17:22.809Z,73.62
2019-01-08T05:19:48.676Z,73.98
2019-01-08T05:22:14.556Z,74.03
2019-01-08T05:24:40.454Z,73.96
2019-01-08T05:27:06.342Z,74.21
2019-01-08T05:29:32.240Z,74.31
2019-01-08T05:31:58.136Z,74.08
2019-01-08T05:34:24.021Z,73.84
2019-01-08T05:36:49.931Z,74.54
2019-01-08T05:39:15.826Z,74.82
2019-01-08T05:41:41.745Z,75.07
2019-01-08T05:44:07.637Z,75.59
2019-01-08T05:46:33.584Z,75.66
2019-01-08T05:48:59.461Z,75.92
2019-01-08T05:51:25.363Z,76.02
2019-01-08T05:53:51.283Z,76.14
2019-01-08T05:56:17.147Z,75.68
2019-01-08T05:58:43.015Z,75.50
2019-01-08T06:01:08.932Z,75.10
2019-01-08T06:03:34.807Z,75.58
2019-01-08T06:06:00.732Z,76.09
2019-01-08T06:08:26.594Z,76.48
2019-01-08T06:10:52.544Z,75.92
2019-01-08T06:13:18.410Z,75.22
2019-01-08T06:15:44.279Z,75.42
2019-01-08T06:18:10.195Z,75.65
2019-01-08T06:20:36.108Z,75.41
2019-01-08T06:23:01.974Z,75.99
2019-01-08T06:25:27.870Z,77.44
2019-01-08T06:27:53.796Z,76.83
2019-01-08T06:30:24.753Z,76.66
2019-01-08T06:32:47.492Z,76.43
2019-01-08T06:35:13.382Z,75.95
2019-01-08T06:37:39.288Z,75.80
2019-01-08T06:40:46.780Z,74.93
2019-01-08T06:43:12.722Z,74.72
2019-01-08T06:45:38.620Z,74.77
2019-01-08T06:48:04.556Z,74.94
2019-01-08T06:50:30.424Z,75.07
2019-01-08T06:52:56.402Z,75.53
2019-01-08T06:55:22.307Z,75.79
2019-01-08T06:57:48.184Z,75.55
2019-01-08T07:00:14.093Z,75.82
2019-01-08T07:02:39.967Z,76.30
2019-01-08T07:05:05.877Z,76.05
2019-01-08T07:07:31.736Z,76.39
2019-01-08T07:09:57.670Z,76.62
2019-01-08T07:12:23.541Z,76.51
2019-01-08T07:14:49.439Z,76.43
2019-01-08T07:17:15.309Z,76.16
2019-01-08T07:22:33.897Z,75.79
2019-01-08T07:24:59.837Z,76.08
2019-01-08T07:27:25.707Z,75.73
2019-01-08T07:29:51.582Z,75.55
2019-01-08T07:32:17.479Z,75.31
2019-01-08T07:34:43.384Z,75.09
2019-01-08T07:37:09.293Z,75.32
2019-01-08T07:39:35.164Z,75.08
2019-01-08T07:42:01.096Z,75.03
2019-01-08T07:44:26.972Z,74.41
2019-01-08T07:46:52.882Z,73.43
2019-01-08T07:49:18.744Z,73.95
2019-01-08T07:51:44.638Z,73.54
2019-01-08T07:54:10.528Z,72.96
2019-01-08T07:56:36.384Z,73.35
2019-01-08T07:59:02.318Z,73.72
2019-01-08T08:01:28.189Z,73.20
2019-01-08T08:03:54.100Z,73.09
2019-01-08T08:06:19.973Z,72.76
2019-01-08T08:08:45.893Z,73.26
2019-01-08T08:11:11.801Z,72.75
2019-01-08T08:13:37.711Z,72.79
2019-01-08T08:16:03.584Z,72.94
2019-01-08T08:18:29.498Z,72.96
2019-01-08T08:20:55.405Z,72.95
2019-01-08T08:23:21.310Z,73.12
2019-01-08T08:25:47.217Z,74.03
2019-01-08T08:28:13.088Z,74.19
2019-01-08T08:30:38.989Z,74.37
2019-01-08T08:33:04.890Z,74.90
2019-01-08T08:35:30.787Z,74.99
2019-01-08T08:37:56.654Z,74.56
2019-01-08T08:40:22.555Z,74.36
2019-01-08T08:42:48.439Z,74.84
2019-01-08T08:45:14.343Z,74.91
2019-01-08T08:47:40.264Z,75.62
2019-01-08T08:50:06.137Z,75.25
2019-01-08T08:52:32.051Z,75.05
2019-01-08T08:54:58.027Z,74.55
2019-01-08T08:57:23.925Z,74.25
2019-01-08T08:59:49.787Z,74.23
2019-01-08T09:02:15.952Z,73.89
2019-01-08T09:04:43.530Z,74.90
2019-01-08T09:07:09.409Z,75.56
2019-01-08T09:09:55.770Z,75.35
2019-01-08T09:12:21.682Z,76.48
2019-01-08T09:14:47.583Z,77.41
2019-01-08T09:17:13.459Z,76.54
2019-01-08T09:19:39.361Z,77.35
2019-01-08T09:22:05.244Z,78.21
2019-01-08T09:24:51.120Z,77.80
2019-01-08T09:27:17.033Z,77.77
2019-01-08T09:29:42.933Z,77.57
2019-01-08T09:32:08.801Z,77.40
2019-01-08T09:34:34.730Z,78.15
2019-01-08T09:37:00.601Z,78.11
2019-01-08T09:39:26.487Z,78.44
2019-01-08T09:41:52.386Z,78.05
2019-01-08T09:44:18.251Z,78.60
2019-01-08T09:46:44.200Z,78.54
2019-01-08T09:49:10.080Z,78.59
2019-01-08T09:51:35.976Z,78.13
2019-01-08T09:54:01.851Z,78.28
2019-01-08T09:56:27.746Z,78.75
2019-01-08T09:58:53.659Z,79.11
2019-01-08T10:01:23.989Z,79.22
2019-01-08T10:03:47.393Z,79.57
2019-01-08T10:06:13.292Z,79.70
2019-01-08T10:08:39.169Z,79.50
2019-01-08T10:11:05.111Z,79.87
2019-01-08T10:13:50.901Z,79.85
2019-01-08T10:16:16.857Z,79.85
2019-01-08T10:18:42.867Z,80.13
2019-01-08T10:21:08.751Z,79.77
2019-01-08T10:23:34.651Z,80.22
2019-01-08T10:26:00.529Z,80.39
2019-01-08T10:28:26.425Z,80.06
2019-01-08T10:30:52.330Z,80.53
2019-01-08T10:33:18.208Z,80.02
2019-01-08T10:35:44.120Z,79.89
2019-01-08T10:38:10.035Z,80.32
2019-01-08T10:40:35.914Z,79.25
2019-01-08T10:43:01.864Z,79.10
2019-01-08T10:45:27.739Z,79.20
2019-01-08T10:47:53.641Z,79.01
2019-01-08T10:50:19.572Z,78.97
2019-01-08T10:52:45.436Z,78.68
2019-01-08T10:55:11.364Z,78.12
2019-01-08T10:57:37.277Z,78.12
2019-01-08T11:00:44.824Z,77.88
2019-01-08T11:03:10.736Z,77.91
2019-01-08T11:05:36.636Z,78.06
2019-01-08T11:08:02.520Z,77.73
2019-01-08T11:10:28.460Z,77.73
2019-01-08T11:12:54.344Z,77.51
2019-01-08T11:15:20.206Z,77.60
2019-01-08T11:17:46.116Z,77.05
2019-01-08T11:20:11.989Z,76.39
2019-01-08T11:22:37.899Z,76.12
2019-01-08T11:28:17.790Z,75.34
2019-01-08T11:30:43.665Z,75.26
2019-01-08T11:33:09.532Z,75.68
2019-01-08T11:35:42.161Z,75.39
2019-01-08T11:38:03.277Z,75.18
2019-01-08T11:40:29.141Z,75.31
2019-01-08T11:42:55.050Z,73.98
2019-01-08T11:45:20.925Z,74.12
2019-01-08T11:47:46.817Z,73.57
2019-01-08T11:50:12.717Z,74.18
2019-01-08T11:52:38.590Z,75.16
2019-01-08T11:55:04.481Z,75.94
2019-01-08T11:57:30.339Z,76.56
2019-01-08T12:02:28.467Z,77.07
2019-01-08T12:04:54.353Z,77.93
2019-01-08T12:07:20.259Z,77.63
2019-01-08T12:09:46.141Z,78.08
2019-01-08T12:12:12.082Z,77.69
2019-01-08T12:14:37.964Z,77.19
2019-01-08T12:17:03.871Z,76.13
2019-01-08T12:19:29.751Z,75.82
2019-01-08T12:21:55.646Z,76.22
2019-01-08T12:24:21.530Z,76.05
2019-01-08T12:26:47.424Z,75.66
2019-01-08T12:29:13.312Z,75.71
2019-01-08T12:31:39.226Z,74.88
2019-01-08T12:34:05.142Z,75.84
2019-01-08T12:36:31.008Z,75.50
2019-01-08T12:38:56.909Z,75.66
2019-01-08T12:41:22.822Z,74.86
2019-01-08T12:43:48.738Z,74.38
2019-01-08T12:46:14.647Z,74.43
2019-01-08T12:48:40.517Z,74.38
2019-01-08T12:51:06.435Z,73.94
2019-01-08T12:53:32.301Z,73.51
2019-01-08T12:55:58.211Z,74.48
2019-01-08T12:58:24.080Z,75.65
2019-01-08T13:03:24.032Z,76.99
2019-01-08T13:05:49.894Z,77.18
2019-01-08T13:08:15.784Z,77.25
2019-01-08T13:10:41.691Z,76.54
2019-01-08T13:13:07.563Z,76.24
2019-01-08T13:15:33.483Z,75.64
2019-01-08T13:17:59.393Z,74.73
2019-01-08T13:20:25.307Z,74.76
2019-01-08T13:22:51.219Z,75.04
2019-01-08T13:25:17.090Z,73.82
2019-01-08T13:27:42.998Z,74.03
2019-01-08T13:30:08.882Z,72.79
2019-01-08T13:32:34.790Z,73.81
2019-01-08T13:35:00.668Z,73.15
2019-01-08T13:37:26.558Z,73.20
2019-01-08T13:39:52.432Z,72.88
2019-01-08T13:42:18.351Z,72.49
2019-01-08T13:44:44.231Z,71.93
2019-01-08T13:47:10.101Z,71.86
2019-01-08T13:49:36.008Z,73.17
2019-01-08T13:52:01.866Z,74.03
2019-01-08T13:54:27.770Z,74.65
2019-01-08T13:56:53.647Z,76.05
2019-01-08T13:59:19.563Z,76.58
2019-01-08T14:01:45.534Z,77.80
2019-01-08T14:04:11.392Z,78.12
2019-01-08T14:06:37.292Z,78.15
2019-01-08T14:09:44.841Z,77.84
2019-01-08T14:12:10.738Z,76.89
2019-01-08T14:14:36.656Z,78.06
2019-01-08T14:17:09.709Z,77.97
2019-01-08T14:19:35.618Z,78.22
2019-01-08T14:22:01.515Z,78.07
2019-01-08T14:24:27.441Z,77.67
2019-01-08T14:29:27.117Z,76.54
2019-01-08T14:31:53.025Z,75.78
2019-01-08T14:34:18.896Z,75.07
2019-01-08T14:39:16.827Z,74.84
2019-01-08T14:41:42.725Z,74.33
2019-01-08T14:44:08.601Z,74.35
2019-01-08T14:46:34.525Z,74.15
2019-01-08T14:49:00.387Z,74.58
2019-01-08T14:51:26.297Z,74.22
2019-01-08T14:53:52.168Z,74.38
2019-01-08T14:56:18.099Z,74.56
2019-01-08T14:58:44.002Z,74.02
2019-01-08T15:01:09.871Z,74.69
2019-01-08T15:03:35.791Z,74.71
2019-01-08T15:06:01.690Z,74.57
2019-01-08T15:08:27.703Z,74.39
2019-01-08T15:10:53.592Z,74.46
2019-01-08T15:13:19.470Z,74.34
2019-01-08T15:15:45.376Z,74.89
2019-01-08T15:18:11.262Z,74.96
2019-01-08T15:20:38.959Z,75.19
2019-01-08T15:23:05.005Z,75.55
2019-01-08T15:25:30.946Z,75.97
2019-01-08T15:27:56.820Z,76.20
2019-01-08T15:33:14.309Z,76.19
2019-01-08T15:35:40.395Z,76.19
2019-01-08T15:38:06.274Z,76.22
2019-01-08T15:40:32.129Z,76.30
2019-01-08T15:42:58.032Z,76.12
2019-01-08T15:48:11.331Z,76.73
2019-01-08T15:50:37.203Z,76.75
2019-01-08T15:53:03.098Z,76.86
2019-01-08T15:55:28.986Z,78.01
2019-01-08T15:57:54.891Z,78.71
2019-01-08T16:00:20.754Z,78.97
2019-01-08T16:02:46.678Z,78.32
2019-01-08T16:05:12.589Z,78.68
2019-01-08T16:07:38.469Z,79.34
2019-01-08T16:10:45.989Z,79.20
2019-01-08T16:13:11.902Z,79.33
2019-01-08T16:15:37.815Z,78.69
2019-01-08T16:18:03.706Z,78.12
2019-01-08T16:20:29.614Z,77.61
2019-01-08T16:22:55.483Z,77.24
2019-01-08T16:25:21.393Z,77.59
2019-01-08T16:27:47.271Z,77.69
2019-01-08T16:30:13.193Z,77.17
2019-01-08T16:32:39.052Z,76.44
2019-01-08T16:35:04.929Z,76.92
2019-01-08T16:37:30.820Z,77.70
2019-01-08T16:39:56.729Z,78.12
2019-01-08T16:42:22.782Z,78.48
2019-01-08T16:44:50.456Z,78.48
2019-01-08T16:47:16.354Z,78.13
2019-01-08T16:49:42.242Z,77.84
2019-01-08T16:52:08.144Z,78.24
2019-01-08T16:54:34.014Z,77.86
2019-01-08T16:56:59.918Z,77.93
2019-01-08T16:59:25.814Z,78.20
2019-01-08T17:01:51.716Z,77.61
2019-01-08T17:04:17.644Z,77.05
2019-01-08T17:06:43.568Z,77.34
2019-01-08T17:09:09.474Z,76.86
2019-01-08T17:11:35.426Z,77.55
2019-01-08T17:14:01.352Z,77.61
2019-01-08T17:16:27.214Z,77.40
2019-01-08T17:18:53.154Z,78.63
2019-01-08T17:21:19.036Z,78.32
2019-01-08T17:23:44.945Z,78.42
2019-01-08T17:26:10.804Z,78.69
2019-01-08T17:28:36.709Z,78.84
2019-01-08T17:31:02.626Z,78.98
2019-01-08T17:33:33.690Z,78.46
2019-01-08T17:35:56.382Z,77.92
2019-01-08T17:38:22.268Z,78.09
2019-01-08T17:40:48.218Z,77.88
2019-01-08T17:43:14.094Z,77.47
2019-01-08T17:45:39.970Z,77.54
2019-01-08T17:48:05.887Z,77.84
2019-01-08T17:50:31.767Z,77.66
2019-01-08T17:52:57.679Z,77.41
2019-01-08T17:55:23.557Z,77.35
2019-01-08T17:57:49.461Z,77.86
2019-01-08T18:00:15.339Z,77.93
2019-01-08T18:03:22.875Z,78.09
2019-01-08T18:05:48.777Z,77.39
2019-01-08T18:08:14.687Z,76.89
2019-01-08T18:10:40.559Z,76.84
2019-01-08T18:13:06.472Z,76.50
2019-01-08T18:15:32.324Z,76.34
2019-01-08T18:17:58.250Z,75.69
2019-01-08T18:20:24.115Z,75.97
2019-01-08T18:22:50.034Z,75.56
2019-01-08T18:25:15.902Z,75.50
2019-01-08T18:27:41.816Z,75.07
2019-01-08T18:30:07.686Z,74.99
2019-01-08T18:32:33.604Z,74.38
2019-01-08T18:34:59.512Z,74.89
2019-01-08T18:37:25.382Z,75.33
2019-01-08T18:39:51.285Z,74.91
2019-01-08T18:42:17.160Z,74.84
2019-01-08T18:44:43.067Z,74.59
2019-01-08T18:47:08.943Z,74.46
2019-01-08T18:49:34.860Z,73.69
2019-01-08T18:52:00.768Z,73.32
2019-01-08T18:54:28.144Z,72.81
2019-01-08T18:56:54.489Z,72.83
2019-01-08T18:59:20.362Z,73.07
2019-01-08T19:01:46.294Z,73.48
2019-01-08T19:04:12.205Z,72.33
2019-01-08T19:06:38.163Z,72.50
2019-01-08T19:12:17.511Z,73.89
2019-01-08T19:14:43.387Z,72.86
2019-01-08T19:17:09.303Z,72.66
2019-01-08T19:19:35.218Z,72.43
2019-01-08T19:22:01.090Z,72.63
2019-01-08T19:24:27.099Z,71.95
2019-01-08T19:26:52.967Z,72.66
2019-01-08T19:29:18.875Z,72.65
2019-01-08T19:31:44.746Z,72.60
2019-01-08T19:34:10.656Z,72.80
2019-01-08T19:36:36.678Z,72.38
2019-01-08T19:39:44.222Z,72.96
2019-01-08T19:42:10.156Z,73.08
2019-01-08T19:44:36.051Z,73.47
2019-01-08T19:47:01.990Z,73.24
2019-01-08T19:49:27.850Z,72.93
2019-01-08T19:51:53.728Z,72.26
2019-01-08T19:54:19.645Z,72.34
2019-01-08T19:56:45.563Z,73.11
2019-01-08T19:59:11.541Z,72.61
2019-01-08T20:01:37.447Z,72.24
2019-01-08T20:04:03.676Z,71.79
2019-01-08T20:06:31.246Z,71.72
2019-01-08T20:08:57.151Z,71.72
2019-01-08T20:11:23.052Z,71.71
2019-01-08T20:13:48.952Z,71.84
2019-01-08T20:16:14.834Z,71.62
2019-01-08T20:18:45.172Z,71.98
2019-01-08T20:21:08.579Z,71.61
2019-01-08T20:23:34.486Z,71.73
2019-01-08T20:26:00.365Z,71.01
2019-01-08T20:28:26.269Z,71.85
2019-01-08T20:30:52.151Z,70.51
2019-01-08T20:33:18.073Z,69.83
2019-01-08T20:35:43.953Z,70.56
2019-01-08T20:38:09.823Z,70.46
2019-01-08T20:40:35.747Z,71.00
2019-01-08T20:43:01.623Z,71.15
2019-01-08T20:45:27.540Z,72.31
2019-01-08T20:47:53.418Z,71.55
2019-01-08T20:50:19.361Z,72.54
2019-01-08T20:52:45.241Z,72.03
2019-01-08T20:55:11.178Z,71.79
2019-01-08T20:57:37.027Z,71.86
2019-01-08T21:00:44.578Z,71.84
2019-01-08T21:03:10.491Z,72.40
2019-01-08T21:05:36.362Z,72.57
2019-01-08T21:08:02.271Z,72.24
2019-01-08T21:10:28.191Z,72.72
2019-01-08T21:12:54.060Z,73.76
2019-01-08T21:15:19.972Z,75.06
2019-01-08T21:17:45.897Z,75.15
2019-01-08T21:20:11.785Z,75.94
2019-01-08T21:22:37.696Z,76.87
2019-01-08T21:25:03.610Z,78.02
2019-01-08T21:27:29.516Z,78.29
2019-01-08T21:29:55.417Z,78.35
2019-01-08T21:32:21.326Z,78.30
2019-01-08T21:34:47.210Z,78.63
2019-01-08T21:37:13.111Z,77.71
2019-01-08T21:39:39.014Z,78.15
2019-01-08T21:42:04.874Z,78.59
2019-01-08T21:44:30.784Z,77.91
2019-01-08T21:46:56.686Z,78.66
2019-01-08T21:49:22.583Z,78.48
2019-01-08T21:51:48.493Z,77.78
2019-01-08T21:54:14.366Z,78.17
2019-01-08T21:56:40.377Z,77.63
2019-01-08T21:59:06.243Z,77.86
2019-01-08T22:01:32.170Z,77.65
2019-01-08T22:03:58.037Z,77.34
2019-01-08T22:06:23.965Z,77.76
2019-01-08T22:08:49.849Z,77.95
2019-01-08T22:11:15.743Z,77.80
2019-01-08T22:13:41.608Z,77.49
2019-01-08T22:16:07.513Z,78.37
2019-01-08T22:18:33.372Z,78.12
2019-01-08T22:20:59.291Z,78.54
2019-01-08T22:23:25.197Z,78.24
2019-01-08T22:25:51.092Z,77.80
2019-01-08T22:28:16.977Z,79.05
2019-01-08T22:30:42.879Z,78.64
2019-01-08T22:36:22.170Z,78.92
2019-01-08T22:38:48.075Z,78.28
2019-01-08T22:41:13.989Z,78.53
2019-01-08T22:43:39.824Z,78.41
2019-01-08T22:46:05.724Z,78.69
2019-01-08T22:48:31.596Z,78.80
2019-01-08T22:50:57.496Z,79.20
2019-01-08T22:53:23.373Z,78.50
2019-01-08T22:55:49.287Z,78.78
2019-01-08T22:58:15.185Z,79.24
2019-01-08T23:01:01.063Z,79.15
2019-01-08T23:03:27.067Z,79.17
2019-01-08T23:05:53.021Z,78.55
2019-01-08T23:08:18.927Z,78.50
2019-01-08T23:13:32.314Z,79.04
2019-01-08T23:15:58.228Z,79.70
2019-01-08T23:18:24.133Z,79.28
2019-01-08T23:20:50.049Z,79.34
2019-01-08T23:23:15.955Z,78.89
2019-01-08T23:25:41.826Z,79.50
2019-01-08T23:28:07.759Z,79.53
2019-01-08T23:30:33.623Z,79.44
2019-01-08T23:32:59.483Z,79.43
2019-01-08T23:35:25.399Z,79.08
2019-01-08T23:37:51.266Z,79.46
2019-01-08T23:40:17.169Z,79.09
2019-01-08T23:42:43.041Z,78.65
2019-01-08T23:45:08.983Z,79.03
2019-01-08T23:47:34.810Z,78.93
2019-01-08T23:50:00.713Z,78.41
2019-01-08T23:53:08.253Z,78.51
2019-01-08T23:58:34.643Z,78.42
